createdAt,value
2022-09-20T00:00:38.187Z,71.49
2022-09-20T00:02:36.380Z,71.85
2022-09-20T00:04:36.065Z,72.04
2022-09-20T00:06:36.031Z,72.26
2022-09-20T00:08:34.532Z,72.32
2022-09-20T00:10:39.270Z,72.06
2022-09-20T00:12:37.686Z,72.04
2022-09-20T00:14:37.157Z,71.65
2022-09-20T00:16:39.097Z,72.04
2022-09-20T00:18:40.296Z,71.73
2022-09-20T00:20:47.195Z,71.84
2022-09-20T00:22:49.670Z,71.74
2022-09-20T00:24:49.143Z,71.96
2022-09-20T00:26:49.045Z,71.70
2022-09-20T00:28:50.873Z,71.60
2022-09-20T00:30:50.230Z,71.92
2022-09-20T00:32:48.431Z,71.96
2022-09-20T00:35:03.886Z,71.93
2022-09-20T00:37:03.483Z,71.92
2022-09-20T00:39:03.533Z,72.51
2022-09-20T00:41:01.550Z,72.97
2022-09-20T00:42:59.760Z,73.13
2022-09-20T00:44:59.715Z,73.14
2022-09-20T00:46:58.007Z,73.08
2022-09-20T00:49:00.452Z,72.64
2022-09-20T00:51:03.133Z,72.74
2022-09-20T00:53:08.392Z,72.63
2022-09-20T00:55:09.906Z,73.31
2022-09-20T00:57:08.134Z,73.57
2022-09-20T00:59:16.542Z,73.64
2022-09-20T01:01:15.215Z,73.38
2022-09-20T01:03:15.441Z,73.68
2022-09-20T01:05:15.994Z,73.33
2022-09-20T01:07:17.265Z,72.87
2022-09-20T01:09:16.719Z,72.42
2022-09-20T01:11:14.964Z,71.92
2022-09-20T01:13:13.130Z,71.78
2022-09-20T01:15:13.096Z,71.68
2022-09-20T01:17:12.804Z,71.95
2022-09-20T01:19:26.464Z,71.78
2022-09-20T01:21:26.320Z,72.06
2022-09-20T01:23:35.185Z,72.13
2022-09-20T01:25:57.530Z,71.64
2022-09-20T01:27:57.338Z,71.58
2022-09-20T01:30:06.181Z,71.65
2022-09-20T01:32:11.223Z,71.19
2022-09-20T01:34:14.547Z,71.31
2022-09-20T01:36:19.005Z,71.93
2022-09-20T01:38:24.632Z,71.90
2022-09-20T01:40:31.834Z,72.59
2022-09-20T01:42:34.847Z,72.83
2022-09-20T01:44:39.920Z,72.76
2022-09-20T01:46:38.328Z,72.60
2022-09-20T01:48:40.593Z,72.96
2022-09-20T01:50:53.825Z,73.53
2022-09-20T01:53:23.295Z,74.13
2022-09-20T01:56:02.146Z,74.99
2022-09-20T01:58:23.447Z,74.01
2022-09-20T02:00:27.450Z,74.16
2022-09-20T02:03:00.997Z,74.63
2022-09-20T02:05:25.208Z,75.07
2022-09-20T02:08:00.946Z,74.81
2022-09-20T02:10:14.492Z,75.57
2022-09-20T02:12:33.665Z,76.29
2022-09-20T02:14:49.744Z,77.05
2022-09-20T02:16:54.864Z,77.65
2022-09-20T02:19:18.162Z,77.73
2022-09-20T02:21:31.234Z,78.14
2022-09-20T02:23:40.820Z,77.89
2022-09-20T02:25:57.245Z,78.24
2022-09-20T02:28:18.668Z,77.84
2022-09-20T02:30:30.621Z,77.27
2022-09-20T02:32:55.833Z,76.97
2022-09-20T02:35:07.136Z,76.75
2022-09-20T02:37:27.016Z,77.07
2022-09-20T02:39:34.376Z,76.80
2022-09-20T02:41:58.242Z,76.33
2022-09-20T02:44:06.535Z,76.29
2022-09-20T02:46:12.165Z,76.48
2022-09-20T02:48:14.608Z,76.54
2022-09-20T02:50:23.019Z,76.73
2022-09-20T02:52:30.233Z,76.80
2022-09-20T02:54:35.382Z,76.65
2022-09-20T02:56:42.761Z,76.98
2022-09-20T02:58:51.189Z,77.01
2022-09-20T03:00:56.671Z,77.12
2022-09-20T03:03:07.713Z,77.11
2022-09-20T03:05:20.022Z,77.37
2022-09-20T03:07:26.829Z,78.25
2022-09-20T03:09:33.537Z,78.46
2022-09-20T03:11:36.529Z,78.75
2022-09-20T03:13:51.306Z,78.66
2022-09-20T03:15:55.246Z,78.91
2022-09-20T03:18:07.584Z,79.20
2022-09-20T03:20:16.635Z,78.77
2022-09-20T03:22:28.021Z,79.07
2022-09-20T03:24:41.091Z,79.26
2022-09-20T03:26:52.796Z,80.26
2022-09-20T03:29:04.066Z,80.37
2022-09-20T03:31:12.316Z,80.41
2022-09-20T03:33:17.781Z,80.45
2022-09-20T03:35:32.073Z,80.32
2022-09-20T03:37:57.644Z,80.04
2022-09-20T03:40:25.833Z,80.07
2022-09-20T03:42:27.027Z,80.28
2022-09-20T03:44:52.764Z,80.41
2022-09-20T03:46:59.279Z,80.75
2022-09-20T03:49:30.055Z,81.18
2022-09-20T03:51:42.157Z,80.64
2022-09-20T03:54:17.320Z,80.62
2022-09-20T03:56:40.717Z,80.69
2022-09-20T03:58:57.202Z,80.36
2022-09-20T04:01:06.891Z,80.30
2022-09-20T04:03:24.609Z,80.30
2022-09-20T04:05:31.717Z,80.18
2022-09-20T04:07:44.195Z,80.54
2022-09-20T04:10:02.413Z,80.57
2022-09-20T04:12:08.283Z,80.14
2022-09-20T04:14:17.256Z,79.59
2022-09-20T04:16:26.996Z,78.67
2022-09-20T04:18:35.734Z,78.05
2022-09-20T04:20:41.199Z,78.08
2022-09-20T04:22:44.473Z,77.69
2022-09-20T04:24:51.248Z,77.70
2022-09-20T04:26:53.077Z,76.97
2022-09-20T04:28:58.549Z,76.52
2022-09-20T04:31:05.134Z,76.43
2022-09-20T04:33:12.663Z,76.71
2022-09-20T04:35:42.325Z,76.37
2022-09-20T04:37:45.822Z,75.25
2022-09-20T04:39:54.491Z,72.47
2022-09-20T04:42:19.488Z,70.33
2022-09-20T04:44:54.513Z,67.94
2022-09-20T04:47:25.243Z,67.22
2022-09-20T04:50:00.291Z,66.66
2022-09-20T04:52:40.977Z,65.82
2022-09-20T04:55:12.341Z,65.42
2022-09-20T04:57:40.521Z,66.74
2022-09-20T04:59:56.935Z,67.05
2022-09-20T05:02:27.082Z,67.13
2022-09-20T05:05:09.995Z,66.38
2022-09-20T05:07:33.417Z,64.83
2022-09-20T05:10:14.751Z,64.79
2022-09-20T05:12:37.549Z,65.37
2022-09-20T05:14:53.173Z,64.52
2022-09-20T05:17:09.354Z,64.87
2022-09-20T05:19:15.149Z,64.17
2022-09-20T05:21:35.758Z,64.66
2022-09-20T05:24:05.134Z,63.09
2022-09-20T05:26:12.048Z,63.08
2022-09-20T05:28:19.286Z,62.16
2022-09-20T05:30:26.104Z,62.63
2022-09-20T05:32:31.722Z,63.77
2022-09-20T05:34:42.507Z,63.71
2022-09-20T05:36:50.697Z,63.33
2022-09-20T05:38:51.716Z,62.50
2022-09-20T05:41:05.879Z,62.28
2022-09-20T05:43:11.958Z,62.51
2022-09-20T05:45:26.706Z,61.35
2022-09-20T05:47:29.097Z,61.08
2022-09-20T05:49:42.952Z,58.85
2022-09-20T05:52:01.155Z,56.59
2022-09-20T05:54:25.251Z,56.30
2022-09-20T05:56:41.125Z,56.44
2022-09-20T05:59:03.174Z,56.21
2022-09-20T06:01:05.677Z,56.08
2022-09-20T06:03:14.626Z,58.22
2022-09-20T06:05:17.132Z,58.45
2022-09-20T06:07:28.234Z,57.44
2022-09-20T06:09:43.712Z,57.63
2022-09-20T06:12:12.814Z,58.38
2022-09-20T06:14:22.062Z,59.17
2022-09-20T06:16:29.643Z,60.28
2022-09-20T06:18:33.790Z,60.22
2022-09-20T06:20:38.445Z,60.45
2022-09-20T06:22:44.004Z,60.22
2022-09-20T06:24:48.297Z,59.74
2022-09-20T06:26:46.557Z,59.00
2022-09-20T06:28:49.432Z,58.16
2022-09-20T06:30:51.406Z,58.71
2022-09-20T06:32:57.379Z,57.07
2022-09-20T06:34:55.988Z,56.37
2022-09-20T06:37:21.438Z,56.52
2022-09-20T06:39:45.092Z,56.86
2022-09-20T06:41:44.447Z,54.63
2022-09-20T06:43:43.100Z,54.42
2022-09-20T06:45:41.683Z,55.05
2022-09-20T06:47:41.514Z,55.00
2022-09-20T06:49:42.480Z,54.49
2022-09-20T06:51:41.995Z,54.60
2022-09-20T06:53:42.529Z,55.05
2022-09-20T06:55:43.292Z,55.35
2022-09-20T06:57:41.547Z,55.47
2022-09-20T06:59:39.774Z,54.38
2022-09-20T07:01:38.318Z,54.05
2022-09-20T07:03:38.070Z,54.79
2022-09-20T07:05:37.096Z,54.22
2022-09-20T07:07:35.300Z,53.77
2022-09-20T07:09:33.467Z,52.40
2022-09-20T07:11:35.119Z,51.90
2022-09-20T07:13:33.456Z,52.90
2022-09-20T07:15:33.565Z,53.39
2022-09-20T07:17:31.800Z,53.91
2022-09-20T07:19:31.548Z,53.78
2022-09-20T07:21:32.559Z,54.81
2022-09-20T07:23:31.915Z,53.87
2022-09-20T07:25:30.454Z,53.59
2022-09-20T07:27:29.543Z,53.12
2022-09-20T07:29:28.293Z,52.20
2022-09-20T07:31:28.567Z,52.31
2022-09-20T07:33:26.855Z,52.83
2022-09-20T07:35:26.429Z,53.53
2022-09-20T07:37:24.593Z,52.81
2022-09-20T07:39:22.771Z,53.79
2022-09-20T07:41:22.942Z,53.69
2022-09-20T07:43:22.743Z,52.85
2022-09-20T07:45:21.128Z,52.24
2022-09-20T07:47:19.161Z,52.64
2022-09-20T07:49:18.595Z,52.25
2022-09-20T07:51:20.460Z,51.42
2022-09-20T07:53:18.885Z,53.29
2022-09-20T07:55:17.184Z,51.79
2022-09-20T07:57:15.268Z,50.85
2022-09-20T07:59:13.701Z,51.19
2022-09-20T08:01:14.429Z,50.89
2022-09-20T08:03:12.958Z,49.41
2022-09-20T08:05:11.130Z,48.15
2022-09-20T08:07:10.889Z,49.27
2022-09-20T08:09:11.471Z,48.97
2022-09-20T08:11:11.761Z,49.57
2022-09-20T08:15:29.274Z,47.65
2022-09-20T08:17:27.487Z,47.51
2022-09-20T08:19:25.765Z,47.63
2022-09-20T08:21:24.651Z,47.68
2022-09-20T08:23:24.391Z,47.82
2022-09-20T08:25:22.731Z,47.55
2022-09-20T08:27:20.992Z,46.14
2022-09-20T08:29:19.274Z,46.15
2022-09-20T08:31:20.249Z,45.31
2022-09-20T08:33:20.752Z,41.72
2022-09-20T08:35:18.946Z,41.22
2022-09-20T08:37:17.234Z,42.38
2022-09-20T08:41:38.453Z,43.93
2022-09-20T08:43:45.273Z,43.90
2022-09-20T08:45:43.965Z,42.00
2022-09-20T08:47:50.011Z,38.48
2022-09-20T08:49:48.603Z,37.57
2022-09-20T08:51:50.641Z,36.35
2022-09-20T08:53:51.332Z,36.67
2022-09-20T08:55:50.924Z,37.12
2022-09-20T08:57:51.987Z,38.45
2022-09-20T08:59:50.624Z,39.51
2022-09-20T09:01:49.988Z,40.25
2022-09-20T09:03:48.651Z,42.18
2022-09-20T09:05:48.517Z,42.97
2022-09-20T09:07:48.189Z,43.74
2022-09-20T09:09:47.836Z,44.28
2022-09-20T09:11:49.228Z,43.12
2022-09-20T09:13:53.573Z,42.22
2022-09-20T09:15:56.975Z,41.23
2022-09-20T09:17:56.170Z,38.38
2022-09-20T09:19:56.077Z,33.85
2022-09-20T09:21:58.731Z,28.84
2022-09-20T09:24:04.710Z,27.37
2022-09-20T09:26:05.495Z,25.96
2022-09-20T09:28:15.029Z,28.47
2022-09-20T09:30:22.121Z,30.79
2022-09-20T09:32:23.815Z,32.99
2022-09-20T09:34:27.626Z,34.10
2022-09-20T09:36:26.513Z,37.24
2022-09-20T09:38:26.802Z,38.88
2022-09-20T09:40:26.420Z,37.61
2022-09-20T09:42:28.985Z,38.04
2022-09-20T09:44:32.904Z,38.40
2022-09-20T09:46:32.699Z,38.45
2022-09-20T09:48:32.109Z,40.38
2022-09-20T09:50:32.141Z,41.60
2022-09-20T09:52:33.493Z,42.23
2022-09-20T09:54:36.035Z,43.47
2022-09-20T09:57:00.914Z,43.29
2022-09-20T09:59:17.252Z,40.93
2022-09-20T10:01:33.080Z,35.02
2022-09-20T10:03:44.071Z,35.04
2022-09-20T10:05:51.732Z,35.24
2022-09-20T10:08:00.282Z,36.88
2022-09-20T10:10:15.276Z,38.43
2022-09-20T10:12:23.660Z,39.96
2022-09-20T10:14:34.620Z,41.29
2022-09-20T10:16:51.445Z,42.11
2022-09-20T10:18:56.110Z,40.41
2022-09-20T10:21:07.643Z,34.75
2022-09-20T10:23:51.382Z,31.36
2022-09-20T10:25:50.577Z,27.28
2022-09-20T10:28:02.382Z,25.68
2022-09-20T10:30:09.511Z,24.67
2022-09-20T10:32:27.164Z,23.85
2022-09-20T10:34:54.223Z,24.39
2022-09-20T10:36:56.005Z,25.69
2022-09-20T10:39:06.130Z,26.97
2022-09-20T10:41:33.552Z,29.13
2022-09-20T10:43:49.057Z,32.02
2022-09-20T10:48:26.541Z,34.52
2022-09-20T10:50:39.007Z,34.98
2022-09-20T10:52:53.292Z,35.39
2022-09-20T10:55:12.597Z,36.39
2022-09-20T10:57:30.343Z,35.88
2022-09-20T10:59:45.053Z,37.53
2022-09-20T11:01:55.118Z,38.79
2022-09-20T11:04:26.902Z,38.22
2022-09-20T11:06:34.373Z,38.36
2022-09-20T11:08:35.636Z,37.87
2022-09-20T11:10:39.311Z,36.92
2022-09-20T11:12:42.691Z,38.27
2022-09-20T11:14:48.379Z,37.61
2022-09-20T11:16:54.281Z,38.06
2022-09-20T11:19:00.390Z,37.00
2022-09-20T11:21:08.728Z,36.59
2022-09-20T11:23:17.588Z,37.52
2022-09-20T11:25:22.280Z,38.09
2022-09-20T11:27:28.276Z,37.87
2022-09-20T11:29:35.911Z,36.66
2022-09-20T11:31:42.170Z,37.51
2022-09-20T11:33:45.811Z,38.34
2022-09-20T11:35:47.736Z,38.47
2022-09-20T11:37:56.925Z,38.20
2022-09-20T11:39:56.784Z,38.13
2022-09-20T11:41:59.948Z,38.20
2022-09-20T11:44:07.111Z,38.44
2022-09-20T11:46:08.098Z,38.37
2022-09-20T11:48:15.608Z,37.25
2022-09-20T11:50:51.583Z,38.28
2022-09-20T11:53:07.416Z,38.09
2022-09-20T11:55:32.227Z,38.94
2022-09-20T11:57:30.885Z,38.97
2022-09-20T11:59:34.706Z,38.10
2022-09-20T12:01:35.696Z,38.81
2022-09-20T12:03:40.260Z,38.68
2022-09-20T12:05:41.560Z,39.25
2022-09-20T12:07:42.390Z,39.64
2022-09-20T12:09:45.316Z,40.05
2022-09-20T12:11:43.663Z,39.66
2022-09-20T12:13:44.695Z,39.38
2022-09-20T12:15:44.191Z,39.09
2022-09-20T12:18:24.940Z,38.95
2022-09-20T12:21:17.500Z,38.50
2022-09-20T12:23:52.754Z,37.87
2022-09-20T12:26:04.694Z,37.76
2022-09-20T12:28:02.901Z,37.44
2022-09-20T12:30:08.165Z,37.01
2022-09-20T12:32:35.544Z,35.97
2022-09-20T12:34:37.585Z,37.34
2022-09-20T12:36:38.281Z,37.31
2022-09-20T12:38:49.213Z,37.03
2022-09-20T12:41:00.533Z,36.92
2022-09-20T12:42:58.657Z,37.48
2022-09-20T12:45:02.575Z,37.66
2022-09-20T12:47:03.123Z,37.91
2022-09-20T12:49:46.545Z,37.83
2022-09-20T12:52:10.159Z,37.19
2022-09-20T12:54:11.542Z,37.67
2022-09-20T12:56:18.001Z,37.56
2022-09-20T12:58:24.138Z,37.25
2022-09-20T13:00:38.349Z,37.88
2022-09-20T13:02:44.973Z,37.84
2022-09-20T13:05:32.159Z,37.87
2022-09-20T13:07:49.100Z,38.14
2022-09-20T13:09:49.693Z,38.17
2022-09-20T13:11:55.977Z,37.84
2022-09-20T13:13:58.394Z,37.32
2022-09-20T13:16:01.488Z,38.50
2022-09-20T13:18:03.676Z,38.66
2022-09-20T13:20:03.122Z,37.33
2022-09-20T13:22:07.999Z,37.91
2022-09-20T13:24:08.341Z,38.87
2022-09-20T13:26:10.520Z,37.92
2022-09-20T13:28:20.467Z,37.88
2022-09-20T13:30:21.340Z,38.32
2022-09-20T13:32:23.775Z,37.82
2022-09-20T13:34:24.465Z,37.76
2022-09-20T13:36:29.201Z,38.24
2022-09-20T13:38:32.672Z,38.16
2022-09-20T13:40:35.667Z,38.32
2022-09-20T13:42:35.753Z,38.22
2022-09-20T13:44:35.193Z,38.37
2022-09-20T13:46:34.490Z,38.65
2022-09-20T13:48:32.633Z,38.76
2022-09-20T13:50:33.683Z,38.88
2022-09-20T13:52:33.101Z,39.65
2022-09-20T13:54:34.593Z,39.07
2022-09-20T13:56:33.093Z,38.73
2022-09-20T13:58:34.319Z,39.06
2022-09-20T14:00:33.906Z,38.86
2022-09-20T14:02:34.288Z,39.66
2022-09-20T14:04:35.877Z,40.58
2022-09-20T14:06:34.513Z,40.94
2022-09-20T14:08:36.229Z,41.45
2022-09-20T14:10:37.673Z,42.37
2022-09-20T14:12:35.936Z,42.89
2022-09-20T14:14:35.904Z,43.36
2022-09-20T14:16:38.810Z,43.32
2022-09-20T14:18:37.613Z,44.07
2022-09-20T14:20:36.103Z,44.27
2022-09-20T14:22:34.594Z,44.18
2022-09-20T14:24:35.731Z,42.92
2022-09-20T14:26:37.402Z,43.10
2022-09-20T14:28:35.676Z,42.43
2022-09-20T14:30:37.427Z,42.45
2022-09-20T14:32:40.256Z,42.82
2022-09-20T14:34:39.778Z,42.84
2022-09-20T14:36:38.931Z,42.12
2022-09-20T14:38:37.879Z,42.41
2022-09-20T14:40:44.933Z,42.43
2022-09-20T14:42:47.883Z,42.78
2022-09-20T14:44:46.107Z,43.32
2022-09-20T14:46:44.489Z,44.04
2022-09-20T14:48:42.879Z,44.08
2022-09-20T14:50:45.678Z,44.54
2022-09-20T14:52:45.546Z,45.18
2022-09-20T14:54:46.589Z,44.44
2022-09-20T14:56:51.022Z,45.22
2022-09-20T14:59:22.062Z,45.46
2022-09-20T15:01:26.019Z,46.39
2022-09-20T15:03:28.657Z,46.69
2022-09-20T15:05:29.470Z,47.04
2022-09-20T15:07:28.153Z,46.67
2022-09-20T15:09:26.562Z,46.80
2022-09-20T15:11:24.706Z,47.15
2022-09-20T15:13:22.938Z,47.32
2022-09-20T15:15:22.575Z,47.19
2022-09-20T15:17:23.691Z,47.82
2022-09-20T15:19:22.604Z,48.24
2022-09-20T15:21:20.671Z,48.79
2022-09-20T15:23:19.104Z,48.64
2022-09-20T15:25:21.107Z,49.29
2022-09-20T15:27:19.398Z,49.53
2022-09-20T15:29:18.681Z,49.22
2022-09-20T15:31:20.019Z,49.51
2022-09-20T15:33:18.906Z,49.40
2022-09-20T15:35:19.647Z,49.95
2022-09-20T15:37:17.947Z,49.83
2022-09-20T15:39:16.738Z,50.41
2022-09-20T15:41:17.176Z,49.86
2022-09-20T15:43:17.456Z,49.72
2022-09-20T15:45:15.600Z,49.84
2022-09-20T15:47:16.135Z,50.20
2022-09-20T15:49:14.501Z,50.56
2022-09-20T15:51:14.412Z,50.71
2022-09-20T15:53:12.940Z,51.13
2022-09-20T15:55:12.309Z,51.55
2022-09-20T15:57:13.656Z,51.67
2022-09-20T15:59:14.694Z,52.20
2022-09-20T16:01:13.155Z,52.47
2022-09-20T16:03:12.744Z,53.00
2022-09-20T16:05:11.206Z,53.00
2022-09-20T16:07:10.342Z,53.69
2022-09-20T16:09:09.017Z,52.92
2022-09-20T16:11:08.907Z,52.92
2022-09-20T16:13:06.966Z,53.19
2022-09-20T16:15:07.717Z,54.04
2022-09-20T16:17:06.168Z,54.78
2022-09-20T16:19:24.039Z,55.07
2022-09-20T16:21:23.209Z,55.41
2022-09-20T16:23:25.802Z,55.87
2022-09-20T16:25:24.268Z,55.82
2022-09-20T16:27:22.731Z,55.60
2022-09-20T16:29:22.461Z,55.55
2022-09-20T16:31:34.907Z,56.17
2022-09-20T16:33:33.936Z,55.65
2022-09-20T16:35:34.244Z,56.40
2022-09-20T16:37:32.910Z,56.56
2022-09-20T16:39:31.976Z,56.91
2022-09-20T16:41:30.296Z,58.18
2022-09-20T16:43:28.900Z,57.89
2022-09-20T16:45:30.259Z,58.21
2022-09-20T16:47:29.708Z,58.60
2022-09-20T16:49:28.934Z,58.54
2022-09-20T16:51:33.346Z,58.10
2022-09-20T16:53:31.618Z,59.42
2022-09-20T16:55:29.784Z,58.93
2022-09-20T16:57:29.070Z,58.95
2022-09-20T16:59:27.389Z,59.36
2022-09-20T17:01:25.556Z,60.41
2022-09-20T17:03:28.306Z,61.60
2022-09-20T17:05:26.501Z,61.11
2022-09-20T17:07:26.038Z,61.72
2022-09-20T17:09:24.290Z,61.26
2022-09-20T17:11:25.116Z,60.50
2022-09-20T17:13:24.315Z,61.62
2022-09-20T17:15:22.721Z,61.64
2022-09-20T17:17:24.935Z,61.62
2022-09-20T17:19:23.152Z,61.27
2022-09-20T17:21:22.627Z,61.48
2022-09-20T17:23:22.212Z,61.15
2022-09-20T17:25:20.442Z,62.21
2022-09-20T17:27:18.770Z,62.23
2022-09-20T17:29:18.601Z,62.03
2022-09-20T17:31:20.768Z,62.53
2022-09-20T17:33:19.106Z,62.71
2022-09-20T17:35:18.333Z,62.55
2022-09-20T17:37:16.553Z,62.13
2022-09-20T17:39:17.402Z,62.89
2022-09-20T17:41:17.258Z,62.12
2022-09-20T17:43:16.663Z,62.88
2022-09-20T17:45:15.100Z,63.10
2022-09-20T17:47:13.397Z,62.81
2022-09-20T17:49:18.106Z,62.69
2022-09-20T17:51:18.150Z,62.58
2022-09-20T17:53:16.412Z,62.65
2022-09-20T17:55:17.419Z,62.79
2022-09-20T17:57:15.473Z,63.08
2022-09-20T17:59:15.771Z,63.16
2022-09-20T18:01:18.981Z,63.32
2022-09-20T18:03:17.555Z,64.26
2022-09-20T18:05:17.913Z,64.29
2022-09-20T18:07:18.093Z,64.25
2022-09-20T18:09:18.003Z,64.30
2022-09-20T18:11:20.370Z,64.26
2022-09-20T18:13:18.629Z,64.45
2022-09-20T18:15:19.739Z,64.00
2022-09-20T18:17:18.163Z,64.42
2022-09-20T18:19:16.759Z,64.21
2022-09-20T18:21:17.120Z,64.98
2022-09-20T18:23:15.524Z,65.11
2022-09-20T18:25:15.823Z,64.79
2022-09-20T18:27:15.584Z,64.55
2022-09-20T18:29:23.742Z,64.81
2022-09-20T18:31:23.002Z,65.60
2022-09-20T18:33:21.495Z,64.96
2022-09-20T18:35:19.556Z,65.06
2022-09-20T18:37:18.210Z,65.02
2022-09-20T18:39:16.560Z,65.07
2022-09-20T18:41:15.227Z,65.04
2022-09-20T18:43:15.120Z,65.52
2022-09-20T18:45:32.625Z,65.05
2022-09-20T18:47:32.826Z,65.76
2022-09-20T18:49:33.569Z,65.59
2022-09-20T18:51:39.157Z,65.95
2022-09-20T18:53:42.073Z,65.72
2022-09-20T18:55:44.731Z,66.61
2022-09-20T18:57:46.170Z,66.88
2022-09-20T18:59:54.050Z,66.54
2022-09-20T19:02:30.359Z,67.72
2022-09-20T19:04:45.394Z,67.75
2022-09-20T19:06:49.766Z,67.15
2022-09-20T19:08:52.473Z,67.67
2022-09-20T19:10:54.929Z,68.01
2022-09-20T19:12:59.593Z,68.13
2022-09-20T19:15:33.391Z,68.68
2022-09-20T19:17:53.176Z,68.37
2022-09-20T19:19:54.686Z,68.63
2022-09-20T19:21:59.350Z,68.80
2022-09-20T19:24:09.488Z,69.13
2022-09-20T19:26:14.931Z,69.19
2022-09-20T19:28:17.599Z,69.14
2022-09-20T19:30:17.340Z,69.17
2022-09-20T19:32:21.741Z,68.93
2022-09-20T19:34:21.588Z,69.06
2022-09-20T19:36:21.862Z,68.51
2022-09-20T19:38:35.655Z,68.53
2022-09-20T19:40:45.070Z,69.10
2022-09-20T19:43:06.555Z,69.27
2022-09-20T19:45:16.923Z,68.75
2022-09-20T19:47:34.389Z,68.26
2022-09-20T19:49:48.433Z,67.59
2022-09-20T19:51:59.508Z,67.62
2022-09-20T19:54:06.588Z,67.59
2022-09-20T19:56:21.654Z,67.85
2022-09-20T19:58:21.184Z,68.38
2022-09-20T20:00:22.239Z,68.38
2022-09-20T20:02:46.678Z,68.66
2022-09-20T20:04:50.853Z,69.19
2022-09-20T20:06:59.016Z,69.76
2022-09-20T20:09:06.358Z,69.43
2022-09-20T20:11:11.202Z,69.84
2022-09-20T20:13:30.125Z,70.30
2022-09-20T20:15:40.774Z,69.96
2022-09-20T20:17:49.829Z,69.18
2022-09-20T20:20:06.183Z,69.25
2022-09-20T20:22:13.208Z,69.61
2022-09-20T20:24:22.111Z,69.89
2022-09-20T20:26:22.405Z,70.19
2022-09-20T20:28:23.974Z,70.18
2022-09-20T20:30:22.424Z,69.85
2022-09-20T20:32:20.956Z,69.56
2022-09-20T20:34:20.801Z,69.25
2022-09-20T20:36:21.427Z,69.49
2022-09-20T20:38:20.117Z,69.65
2022-09-20T20:40:18.765Z,69.91
2022-09-20T20:42:17.713Z,70.03
2022-09-20T20:44:17.076Z,69.84
2022-09-20T20:46:18.634Z,69.83
2022-09-20T20:48:20.646Z,70.07
2022-09-20T20:50:20.576Z,70.15
2022-09-20T20:52:18.764Z,70.59
2022-09-20T20:54:17.659Z,70.96
2022-09-20T20:56:20.192Z,70.76
2022-09-20T20:58:18.480Z,70.69
2022-09-20T21:00:17.575Z,70.61
2022-09-20T21:02:16.074Z,71.10
2022-09-20T21:04:17.132Z,71.10
2022-09-20T21:06:18.306Z,71.06
2022-09-20T21:08:17.062Z,71.82
2022-09-20T21:10:15.720Z,71.38
2022-09-20T21:12:14.912Z,71.53
2022-09-20T21:14:15.051Z,72.09
2022-09-20T21:16:15.970Z,72.30
2022-09-20T21:18:15.462Z,72.98
2022-09-20T21:20:14.051Z,73.38
2022-09-20T21:22:13.948Z,73.76
2022-09-20T21:24:15.470Z,73.18
2022-09-20T21:26:15.719Z,73.07
2022-09-20T21:28:14.266Z,73.38
2022-09-20T21:30:13.944Z,73.54
2022-09-20T21:32:12.376Z,73.63
2022-09-20T21:34:14.116Z,73.21
2022-09-20T21:36:14.266Z,73.59
2022-09-20T21:38:13.928Z,73.77
2022-09-20T21:40:12.696Z,73.94
2022-09-20T21:42:13.181Z,74.57
2022-09-20T21:44:12.302Z,74.91
2022-09-20T21:46:15.291Z,75.07
2022-09-20T21:48:13.909Z,74.74
2022-09-20T21:50:15.672Z,74.40
2022-09-20T21:52:14.892Z,74.44
2022-09-20T21:54:14.922Z,75.19
2022-09-20T21:56:15.547Z,74.73
2022-09-20T21:58:13.913Z,74.43
2022-09-20T22:00:13.001Z,74.30
2022-09-20T22:02:11.156Z,74.94
2022-09-20T22:04:10.795Z,75.27
2022-09-20T22:06:11.471Z,75.29
2022-09-20T22:08:09.689Z,75.21
2022-09-20T22:10:10.260Z,75.74
2022-09-20T22:12:08.803Z,75.32
2022-09-20T22:14:08.292Z,75.21
2022-09-20T22:16:08.947Z,75.27
2022-09-20T22:18:07.173Z,75.11
2022-09-20T22:20:09.212Z,75.20
2022-09-20T22:22:07.475Z,75.25
2022-09-20T22:24:08.215Z,75.20
2022-09-20T22:26:10.560Z,76.12
2022-09-20T22:28:08.700Z,75.72
2022-09-20T22:30:08.599Z,75.89
2022-09-20T22:32:06.831Z,76.08
2022-09-20T22:34:07.305Z,75.61
2022-09-20T22:36:08.861Z,75.75
2022-09-20T22:38:07.496Z,76.46
2022-09-20T22:40:06.776Z,76.18
2022-09-20T22:42:06.646Z,76.01
2022-09-20T22:44:05.465Z,76.28
2022-09-20T22:46:05.670Z,76.08
2022-09-20T22:48:04.028Z,76.31
2022-09-20T22:50:02.538Z,76.29
2022-09-20T22:52:00.847Z,76.30
2022-09-20T22:53:59.105Z,76.59
2022-09-20T22:56:03.856Z,76.36
2022-09-20T22:58:03.433Z,76.64
2022-09-20T23:00:01.969Z,77.14
2022-09-20T23:02:00.244Z,77.65
2022-09-20T23:04:01.042Z,77.53
2022-09-20T23:05:59.228Z,77.83
2022-09-20T23:07:57.511Z,77.45
2022-09-20T23:09:55.716Z,77.35
2022-09-20T23:11:54.317Z,77.39
2022-09-20T23:13:57.019Z,77.90
2022-09-20T23:15:55.202Z,78.19
2022-09-20T23:17:53.777Z,78.67
2022-09-20T23:19:52.797Z,78.28
2022-09-20T23:21:50.850Z,78.50
2022-09-20T23:23:53.683Z,79.10
2022-09-20T23:25:52.313Z,79.32
2022-09-20T23:27:50.649Z,79.50
2022-09-20T23:29:50.194Z,79.79
2022-09-20T23:31:48.723Z,79.54
2022-09-20T23:33:48.829Z,79.81
2022-09-20T23:35:47.389Z,79.47
2022-09-20T23:37:45.729Z,79.39
2022-09-20T23:39:44.091Z,79.57
2022-09-20T23:41:44.859Z,79.91
2022-09-20T23:43:46.419Z,80.31
2022-09-20T23:45:46.119Z,80.71
2022-09-20T23:47:44.295Z,81.03
2022-09-20T23:49:42.507Z,81.39
2022-09-20T23:51:40.598Z,81.54
2022-09-20T23:53:38.821Z,81.27
2022-09-20T23:55:37.085Z,80.59
2022-09-20T23:57:35.239Z,80.03
2022-09-20T23:59:34.180Z,80.04
